sensor_id;sensor_type;location;lat;lon;timestamp;P1;durP1;ratioP1;P2;durP2;ratioP2
2646;SDS011;1333;50.958;6.770;2022-08-18T00:00:49;13.97;;;9.07;;
2646;SDS011;1333;50.958;6.770;2022-08-18T00:03:16;12.23;;;9.93;;
2646;SDS011;1333;50.958;6.770;2022-08-18T00:05:43;18.03;;;10.43;;
2646;SDS011;1333;50.958;6.770;2022-08-18T00:08:09;12.00;;;9.63;;
2646;SDS011;1333;50.958;6.770;2022-08-18T00:10:34;15.23;;;10.63;;
2646;SDS011;1333;50.958;6.770;2022-08-18T00:13:00;12.67;;;11.33;;
2646;SDS011;1333;50.958;6.770;2022-08-18T00:15:25;13.70;;;11.07;;
2646;SDS011;1333;50.958;6.770;2022-08-18T00:17:51;14.70;;;10.57;;
2646;SDS011;1333;50.958;6.770;2022-08-18T00:20:18;16.53;;;10.07;;
2646;SDS011;1333;50.958;6.770;2022-08-18T00:22:46;17.47;;;11.40;;
2646;SDS011;1333;50.958;6.770;2022-08-18T00:25:13;14.97;;;10.60;;
2646;SDS011;1333;50.958;6.770;2022-08-18T00:27:39;18.40;;;11.10;;
2646;SDS011;1333;50.958;6.770;2022-08-18T00:30:07;15.70;;;10.20;;
2646;SDS011;1333;50.958;6.770;2022-08-18T00:32:36;14.90;;;10.80;;
2646;SDS011;1333;50.958;6.770;2022-08-18T00:35:20;15.93;;;11.73;;
2646;SDS011;1333;50.958;6.770;2022-08-18T00:37:51;15.47;;;11.03;;
2646;SDS011;1333;50.958;6.770;2022-08-18T00:40:18;15.13;;;10.57;;
2646;SDS011;1333;50.958;6.770;2022-08-18T00:42:48;14.93;;;11.07;;
2646;SDS011;1333;50.958;6.770;2022-08-18T00:45:20;26.17;;;13.17;;
2646;SDS011;1333;50.958;6.770;2022-08-18T00:47:49;21.57;;;13.10;;
2646;SDS011;1333;50.958;6.770;2022-08-18T00:50:16;22.00;;;13.50;;
2646;SDS011;1333;50.958;6.770;2022-08-18T00:52:51;21.50;;;14.33;;
2646;SDS011;1333;50.958;6.770;2022-08-18T00:55:20;21.50;;;13.60;;
2646;SDS011;1333;50.958;6.770;2022-08-18T00:57:47;16.10;;;12.33;;
2646;SDS011;1333;50.958;6.770;2022-08-18T01:00:15;21.27;;;14.97;;
2646;SDS011;1333;50.958;6.770;2022-08-18T01:02:42;23.27;;;13.50;;
2646;SDS011;1333;50.958;6.770;2022-08-18T01:05:17;25.60;;;17.07;;
2646;SDS011;1333;50.958;6.770;2022-08-18T01:07:51;26.67;;;15.73;;
2646;SDS011;1333;50.958;6.770;2022-08-18T01:10:19;27.10;;;16.70;;
2646;SDS011;1333;50.958;6.770;2022-08-18T01:12:47;21.53;;;15.83;;
2646;SDS011;1333;50.958;6.770;2022-08-18T01:15:15;27.77;;;19.30;;
2646;SDS011;1333;50.958;6.770;2022-08-18T01:17:42;25.63;;;15.90;;
2646;SDS011;1333;50.958;6.770;2022-08-18T01:23:46;33.57;;;15.90;;
2646;SDS011;1333;50.958;6.770;2022-08-18T01:26:14;23.73;;;16.07;;
2646;SDS011;1333;50.958;6.770;2022-08-18T01:28:42;29.73;;;15.87;;
2646;SDS011;1333;50.958;6.770;2022-08-18T01:31:09;30.83;;;16.47;;
2646;SDS011;1333;50.958;6.770;2022-08-18T01:33:42;24.77;;;16.57;;
2646;SDS011;1333;50.958;6.770;2022-08-18T01:36:12;25.60;;;15.37;;
2646;SDS011;1333;50.958;6.770;2022-08-18T01:38:41;22.00;;;15.90;;
2646;SDS011;1333;50.958;6.770;2022-08-18T01:41:08;19.57;;;13.97;;
2646;SDS011;1333;50.958;6.770;2022-08-18T01:43:34;24.73;;;15.90;;
2646;SDS011;1333;50.958;6.770;2022-08-18T01:46:01;23.90;;;15.57;;
2646;SDS011;1333;50.958;6.770;2022-08-18T01:48:28;28.23;;;15.90;;
2646;SDS011;1333;50.958;6.770;2022-08-18T01:50:56;28.30;;;17.07;;
2646;SDS011;1333;50.958;6.770;2022-08-18T01:53:23;23.47;;;16.77;;
2646;SDS011;1333;50.958;6.770;2022-08-18T01:55:48;25.53;;;15.93;;
2646;SDS011;1333;50.958;6.770;2022-08-18T01:58:14;26.80;;;16.33;;
2646;SDS011;1333;50.958;6.770;2022-08-18T02:00:40;27.17;;;16.97;;
2646;SDS011;1333;50.958;6.770;2022-08-18T02:03:07;26.73;;;16.60;;
2646;SDS011;1333;50.958;6.770;2022-08-18T02:05:38;27.03;;;17.30;;
2646;SDS011;1333;50.958;6.770;2022-08-18T02:08:07;30.03;;;18.63;;
2646;SDS011;1333;50.958;6.770;2022-08-18T02:10:33;28.30;;;16.07;;
2646;SDS011;1333;50.958;6.770;2022-08-18T02:12:59;22.97;;;15.13;;
2646;SDS011;1333;50.958;6.770;2022-08-18T02:15:24;28.43;;;16.40;;
2646;SDS011;1333;50.958;6.770;2022-08-18T02:17:50;29.17;;;19.07;;
2646;SDS011;1333;50.958;6.770;2022-08-18T02:20:16;28.53;;;16.53;;
2646;SDS011;1333;50.958;6.770;2022-08-18T02:22:44;24.80;;;16.70;;
2646;SDS011;1333;50.958;6.770;2022-08-18T02:25:11;35.50;;;20.10;;
2646;SDS011;1333;50.958;6.770;2022-08-18T02:27:37;28.57;;;17.10;;
2646;SDS011;1333;50.958;6.770;2022-08-18T02:30:04;30.70;;;19.70;;
2646;SDS011;1333;50.958;6.770;2022-08-18T02:32:32;36.57;;;21.00;;
2646;SDS011;1333;50.958;6.770;2022-08-18T02:34:58;33.93;;;18.70;;
2646;SDS011;1333;50.958;6.770;2022-08-18T02:37:24;34.80;;;19.03;;
2646;SDS011;1333;50.958;6.770;2022-08-18T02:39:50;34.70;;;18.97;;
2646;SDS011;1333;50.958;6.770;2022-08-18T02:42:15;32.40;;;20.03;;
2646;SDS011;1333;50.958;6.770;2022-08-18T02:44:41;30.73;;;19.63;;
2646;SDS011;1333;50.958;6.770;2022-08-18T02:47:07;28.90;;;18.50;;
2646;SDS011;1333;50.958;6.770;2022-08-18T02:49:33;32.63;;;20.00;;
2646;SDS011;1333;50.958;6.770;2022-08-18T02:52:01;29.03;;;16.90;;
2646;SDS011;1333;50.958;6.770;2022-08-18T02:54:27;39.40;;;21.87;;
2646;SDS011;1333;50.958;6.770;2022-08-18T02:56:53;29.30;;;19.20;;
2646;SDS011;1333;50.958;6.770;2022-08-18T02:59:20;30.37;;;19.30;;
2646;SDS011;1333;50.958;6.770;2022-08-18T03:01:50;32.20;;;19.90;;
2646;SDS011;1333;50.958;6.770;2022-08-18T03:04:22;35.03;;;20.30;;
2646;SDS011;1333;50.958;6.770;2022-08-18T03:06:51;33.40;;;20.37;;
2646;SDS011;1333;50.958;6.770;2022-08-18T03:09:17;29.57;;;17.10;;
2646;SDS011;1333;50.958;6.770;2022-08-18T03:11:43;32.33;;;18.83;;
2646;SDS011;1333;50.958;6.770;2022-08-18T03:14:10;28.90;;;19.07;;
2646;SDS011;1333;50.958;6.770;2022-08-18T03:16:37;29.83;;;17.47;;
2646;SDS011;1333;50.958;6.770;2022-08-18T03:19:05;26.73;;;16.70;;
2646;SDS011;1333;50.958;6.770;2022-08-18T03:21:31;28.60;;;17.80;;
2646;SDS011;1333;50.958;6.770;2022-08-18T03:24:01;31.40;;;17.20;;
2646;SDS011;1333;50.958;6.770;2022-08-18T03:26:28;30.50;;;19.17;;
2646;SDS011;1333;50.958;6.770;2022-08-18T03:28:54;30.70;;;19.17;;
2646;SDS011;1333;50.958;6.770;2022-08-18T03:31:20;32.17;;;19.60;;
2646;SDS011;1333;50.958;6.770;2022-08-18T03:33:47;34.17;;;18.00;;
2646;SDS011;1333;50.958;6.770;2022-08-18T03:36:16;31.90;;;17.13;;
2646;SDS011;1333;50.958;6.770;2022-08-18T03:38:47;35.80;;;19.63;;
2646;SDS011;1333;50.958;6.770;2022-08-18T03:41:14;40.80;;;20.70;;
2646;SDS011;1333;50.958;6.770;2022-08-18T03:43:43;35.10;;;20.30;;
2646;SDS011;1333;50.958;6.770;2022-08-18T03:46:12;37.87;;;21.07;;
2646;SDS011;1333;50.958;6.770;2022-08-18T03:48:39;36.53;;;20.90;;
2646;SDS011;1333;50.958;6.770;2022-08-18T03:51:09;38.43;;;21.00;;
2646;SDS011;1333;50.958;6.770;2022-08-18T03:53:37;37.63;;;20.60;;
2646;SDS011;1333;50.958;6.770;2022-08-18T03:56:12;36.07;;;20.50;;
2646;SDS011;1333;50.958;6.770;2022-08-18T03:58:45;44.13;;;23.33;;
2646;SDS011;1333;50.958;6.770;2022-08-18T04:01:14;36.50;;;21.00;;
2646;SDS011;1333;50.958;6.770;2022-08-18T04:03:42;44.90;;;23.40;;
2646;SDS011;1333;50.958;6.770;2022-08-18T04:06:15;36.80;;;21.20;;
2646;SDS011;1333;50.958;6.770;2022-08-18T04:08:42;31.53;;;19.23;;
2646;SDS011;1333;50.958;6.770;2022-08-18T04:11:09;47.77;;;23.30;;
2646;SDS011;1333;50.958;6.770;2022-08-18T04:13:35;44.80;;;23.90;;
2646;SDS011;1333;50.958;6.770;2022-08-18T04:16:01;47.53;;;23.20;;
2646;SDS011;1333;50.958;6.770;2022-08-18T04:18:27;41.80;;;21.60;;
2646;SDS011;1333;50.958;6.770;2022-08-18T04:20:54;45.17;;;22.40;;
2646;SDS011;1333;50.958;6.770;2022-08-18T04:23:19;41.83;;;24.00;;
2646;SDS011;1333;50.958;6.770;2022-08-18T04:25:45;50.50;;;24.20;;
2646;SDS011;1333;50.958;6.770;2022-08-18T04:28:19;42.00;;;21.77;;
2646;SDS011;1333;50.958;6.770;2022-08-18T04:30:44;46.53;;;24.27;;
2646;SDS011;1333;50.958;6.770;2022-08-18T04:33:10;42.63;;;23.13;;
2646;SDS011;1333;50.958;6.770;2022-08-18T04:35:36;49.90;;;24.77;;
2646;SDS011;1333;50.958;6.770;2022-08-18T04:38:01;47.53;;;25.73;;
2646;SDS011;1333;50.958;6.770;2022-08-18T04:40:27;48.97;;;26.23;;
2646;SDS011;1333;50.958;6.770;2022-08-18T04:42:53;54.23;;;23.43;;
2646;SDS011;1333;50.958;6.770;2022-08-18T04:45:19;56.53;;;24.30;;
2646;SDS011;1333;50.958;6.770;2022-08-18T04:47:44;42.43;;;24.17;;
2646;SDS011;1333;50.958;6.770;2022-08-18T04:50:10;50.17;;;27.70;;
2646;SDS011;1333;50.958;6.770;2022-08-18T04:52:36;49.67;;;25.17;;
2646;SDS011;1333;50.958;6.770;2022-08-18T04:55:20;46.77;;;23.93;;
2646;SDS011;1333;50.958;6.770;2022-08-18T04:57:46;59.23;;;26.07;;
2646;SDS011;1333;50.958;6.770;2022-08-18T05:00:11;52.87;;;23.57;;
2646;SDS011;1333;50.958;6.770;2022-08-18T05:02:38;47.73;;;25.80;;
2646;SDS011;1333;50.958;6.770;2022-08-18T05:05:04;48.77;;;26.17;;
2646;SDS011;1333;50.958;6.770;2022-08-18T05:07:30;50.90;;;26.03;;
2646;SDS011;1333;50.958;6.770;2022-08-18T05:09:56;42.57;;;22.37;;
2646;SDS011;1333;50.958;6.770;2022-08-18T05:12:21;40.13;;;21.83;;
2646;SDS011;1333;50.958;6.770;2022-08-18T05:14:47;41.30;;;21.47;;
2646;SDS011;1333;50.958;6.770;2022-08-18T05:17:13;36.67;;;21.67;;
2646;SDS011;1333;50.958;6.770;2022-08-18T05:19:40;40.60;;;21.63;;
2646;SDS011;1333;50.958;6.770;2022-08-18T05:22:08;38.77;;;22.50;;
2646;SDS011;1333;50.958;6.770;2022-08-18T05:24:34;35.90;;;19.30;;
2646;SDS011;1333;50.958;6.770;2022-08-18T05:27:01;38.67;;;21.20;;
2646;SDS011;1333;50.958;6.770;2022-08-18T05:29:28;47.33;;;21.63;;
2646;SDS011;1333;50.958;6.770;2022-08-18T05:32:00;42.13;;;20.30;;
2646;SDS011;1333;50.958;6.770;2022-08-18T05:34:28;45.43;;;21.50;;
2646;SDS011;1333;50.958;6.770;2022-08-18T05:40:00;47.77;;;23.50;;
2646;SDS011;1333;50.958;6.770;2022-08-18T05:42:29;50.73;;;22.10;;
2646;SDS011;1333;50.958;6.770;2022-08-18T05:44:59;43.70;;;20.73;;
2646;SDS011;1333;50.958;6.770;2022-08-18T05:47:29;36.27;;;21.00;;
2646;SDS011;1333;50.958;6.770;2022-08-18T05:50:02;38.10;;;19.40;;
2646;SDS011;1333;50.958;6.770;2022-08-18T05:52:35;43.83;;;21.20;;
2646;SDS011;1333;50.958;6.770;2022-08-18T05:55:04;32.10;;;17.37;;
2646;SDS011;1333;50.958;6.770;2022-08-18T05:58:00;29.87;;;16.23;;
2646;SDS011;1333;50.958;6.770;2022-08-18T06:00:30;33.10;;;18.17;;
2646;SDS011;1333;50.958;6.770;2022-08-18T06:05:33;33.13;;;18.67;;
2646;SDS011;1333;50.958;6.770;2022-08-18T06:08:04;34.00;;;18.67;;
2646;SDS011;1333;50.958;6.770;2022-08-18T06:10:37;38.80;;;19.37;;
2646;SDS011;1333;50.958;6.770;2022-08-18T06:13:07;34.93;;;20.07;;
2646;SDS011;1333;50.958;6.770;2022-08-18T06:20:39;32.10;;;19.17;;
2646;SDS011;1333;50.958;6.770;2022-08-18T06:35:50;36.40;;;20.70;;
2646;SDS011;1333;50.958;6.770;2022-08-18T06:41:21;40.47;;;21.70;;
2646;SDS011;1333;50.958;6.770;2022-08-18T06:46:38;38.70;;;21.87;;
2646;SDS011;1333;50.958;6.770;2022-08-18T06:52:19;30.50;;;19.13;;
2646;SDS011;1333;50.958;6.770;2022-08-18T06:54:46;37.17;;;19.80;;
2646;SDS011;1333;50.958;6.770;2022-08-18T07:02:48;33.20;;;18.73;;
2646;SDS011;1333;50.958;6.770;2022-08-18T07:05:29;31.27;;;16.80;;
2646;SDS011;1333;50.958;6.770;2022-08-18T07:10:38;38.27;;;21.43;;
2646;SDS011;1333;50.958;6.770;2022-08-18T07:15:37;28.80;;;17.77;;
2646;SDS011;1333;50.958;6.770;2022-08-18T07:18:04;34.80;;;19.27;;
2646;SDS011;1333;50.958;6.770;2022-08-18T07:20:43;36.03;;;16.90;;
2646;SDS011;1333;50.958;6.770;2022-08-18T07:23:22;30.33;;;16.43;;
2646;SDS011;1333;50.958;6.770;2022-08-18T07:26:08;26.57;;;18.27;;
2646;SDS011;1333;50.958;6.770;2022-08-18T07:33:41;26.90;;;19.30;;
2646;SDS011;1333;50.958;6.770;2022-08-18T07:36:09;30.97;;;16.50;;
2646;SDS011;1333;50.958;6.770;2022-08-18T07:41:18;28.30;;;15.13;;
2646;SDS011;1333;50.958;6.770;2022-08-18T07:44:04;19.47;;;13.43;;
2646;SDS011;1333;50.958;6.770;2022-08-18T07:46:52;18.90;;;13.40;;
2646;SDS011;1333;50.958;6.770;2022-08-18T07:49:21;22.27;;;15.20;;
2646;SDS011;1333;50.958;6.770;2022-08-18T07:52:05;26.77;;;14.70;;
2646;SDS011;1333;50.958;6.770;2022-08-18T07:58:31;24.20;;;16.07;;
2646;SDS011;1333;50.958;6.770;2022-08-18T08:06:08;19.13;;;14.13;;
2646;SDS011;1333;50.958;6.770;2022-08-18T08:08:43;19.57;;;15.00;;
2646;SDS011;1333;50.958;6.770;2022-08-18T08:11:21;23.13;;;14.23;;
2646;SDS011;1333;50.958;6.770;2022-08-18T08:14:00;25.90;;;16.70;;
2646;SDS011;1333;50.958;6.770;2022-08-18T08:16:48;28.87;;;17.97;;
2646;SDS011;1333;50.958;6.770;2022-08-18T08:22:15;24.00;;;14.87;;
2646;SDS011;1333;50.958;6.770;2022-08-18T08:24:48;22.77;;;15.60;;
2646;SDS011;1333;50.958;6.770;2022-08-18T08:27:29;29.83;;;16.17;;
2646;SDS011;1333;50.958;6.770;2022-08-18T08:30:07;21.23;;;14.27;;
2646;SDS011;1333;50.958;6.770;2022-08-18T08:35:34;19.70;;;12.67;;
2646;SDS011;1333;50.958;6.770;2022-08-18T08:38:18;23.60;;;15.27;;
2646;SDS011;1333;50.958;6.770;2022-08-18T08:40:56;22.40;;;14.00;;
2646;SDS011;1333;50.958;6.770;2022-08-18T08:43:33;23.47;;;15.13;;
2646;SDS011;1333;50.958;6.770;2022-08-18T08:46:20;23.10;;;14.70;;
2646;SDS011;1333;50.958;6.770;2022-08-18T08:48:51;27.93;;;15.50;;
2646;SDS011;1333;50.958;6.770;2022-08-18T08:51:36;24.03;;;12.67;;
2646;SDS011;1333;50.958;6.770;2022-08-18T08:54:09;22.17;;;14.90;;
2646;SDS011;1333;50.958;6.770;2022-08-18T08:56:44;22.50;;;14.30;;
2646;SDS011;1333;50.958;6.770;2022-08-18T08:59:13;23.70;;;15.33;;
2646;SDS011;1333;50.958;6.770;2022-08-18T09:07:39;27.30;;;15.20;;
2646;SDS011;1333;50.958;6.770;2022-08-18T09:10:18;21.37;;;15.80;;
2646;SDS011;1333;50.958;6.770;2022-08-18T09:12:56;27.67;;;14.73;;
2646;SDS011;1333;50.958;6.770;2022-08-18T09:15:43;24.47;;;14.03;;
2646;SDS011;1333;50.958;6.770;2022-08-18T09:18:29;22.50;;;14.73;;
2646;SDS011;1333;50.958;6.770;2022-08-18T09:24:06;21.17;;;13.50;;
2646;SDS011;1333;50.958;6.770;2022-08-18T09:26:51;20.53;;;11.43;;
2646;SDS011;1333;50.958;6.770;2022-08-18T09:37:47;21.90;;;15.83;;
2646;SDS011;1333;50.958;6.770;2022-08-18T09:40:43;19.67;;;12.67;;
2646;SDS011;1333;50.958;6.770;2022-08-18T09:47:03;17.20;;;12.80;;
2646;SDS011;1333;50.958;6.770;2022-08-18T09:51:55;17.30;;;12.30;;
2646;SDS011;1333;50.958;6.770;2022-08-18T09:54:29;18.67;;;12.87;;
2646;SDS011;1333;50.958;6.770;2022-08-18T10:01:56;16.27;;;11.30;;
2646;SDS011;1333;50.958;6.770;2022-08-18T10:04:33;17.80;;;12.10;;
2646;SDS011;1333;50.958;6.770;2022-08-18T10:07:20;18.87;;;12.00;;
2646;SDS011;1333;50.958;6.770;2022-08-18T10:12:42;17.67;;;12.30;;
2646;SDS011;1333;50.958;6.770;2022-08-18T10:15:39;17.43;;;12.60;;
2646;SDS011;1333;50.958;6.770;2022-08-18T10:18:19;18.30;;;12.80;;
2646;SDS011;1333;50.958;6.770;2022-08-18T10:21:14;12.37;;;10.67;;
2646;SDS011;1333;50.958;6.770;2022-08-18T10:29:01;16.47;;;13.00;;
2646;SDS011;1333;50.958;6.770;2022-08-18T10:31:30;18.30;;;13.27;;
2646;SDS011;1333;50.958;6.770;2022-08-18T10:37:10;18.93;;;14.40;;
2646;SDS011;1333;50.958;6.770;2022-08-18T10:42:09;18.90;;;15.07;;
2646;SDS011;1333;50.958;6.770;2022-08-18T10:44:59;27.23;;;20.33;;
2646;SDS011;1333;50.958;6.770;2022-08-18T10:47:31;19.77;;;16.47;;
2646;SDS011;1333;50.958;6.770;2022-08-18T10:49:57;19.13;;;16.07;;
2646;SDS011;1333;50.958;6.770;2022-08-18T11:00:17;22.83;;;16.87;;
2646;SDS011;1333;50.958;6.770;2022-08-18T11:05:38;18.73;;;16.20;;
2646;SDS011;1333;50.958;6.770;2022-08-18T11:08:05;20.30;;;15.83;;
2646;SDS011;1333;50.958;6.770;2022-08-18T11:10:40;29.60;;;18.23;;
2646;SDS011;1333;50.958;6.770;2022-08-18T11:13:22;18.13;;;14.27;;
2646;SDS011;1333;50.958;6.770;2022-08-18T11:16:13;18.07;;;14.07;;
2646;SDS011;1333;50.958;6.770;2022-08-18T11:18:47;14.33;;;12.83;;
2646;SDS011;1333;50.958;6.770;2022-08-18T11:21:32;17.33;;;14.13;;
2646;SDS011;1333;50.958;6.770;2022-08-18T11:24:05;14.43;;;12.33;;
2646;SDS011;1333;50.958;6.770;2022-08-18T11:26:45;20.43;;;14.13;;
2646;SDS011;1333;50.958;6.770;2022-08-18T11:31:45;13.70;;;12.30;;
2646;SDS011;1333;50.958;6.770;2022-08-18T11:34:14;14.47;;;10.57;;
2646;SDS011;1333;50.958;6.770;2022-08-18T11:36:43;13.90;;;11.50;;
2646;SDS011;1333;50.958;6.770;2022-08-18T11:39:18;14.87;;;13.30;;
2646;SDS011;1333;50.958;6.770;2022-08-18T11:41:44;14.30;;;11.80;;
2646;SDS011;1333;50.958;6.770;2022-08-18T11:44:15;16.70;;;12.73;;
2646;SDS011;1333;50.958;6.770;2022-08-18T11:46:44;13.00;;;11.70;;
2646;SDS011;1333;50.958;6.770;2022-08-18T11:49:17;13.50;;;12.20;;
2646;SDS011;1333;50.958;6.770;2022-08-18T11:51:57;12.30;;;10.93;;
2646;SDS011;1333;50.958;6.770;2022-08-18T11:54:43;11.90;;;9.60;;
2646;SDS011;1333;50.958;6.770;2022-08-18T11:57:25;12.10;;;9.30;;
2646;SDS011;1333;50.958;6.770;2022-08-18T11:59:52;8.27;;;7.47;;
2646;SDS011;1333;50.958;6.770;2022-08-18T12:02:19;11.80;;;8.80;;
2646;SDS011;1333;50.958;6.770;2022-08-18T12:04:48;9.73;;;8.77;;
2646;SDS011;1333;50.958;6.770;2022-08-18T12:07:28;13.20;;;10.57;;
2646;SDS011;1333;50.958;6.770;2022-08-18T12:12:47;7.70;;;7.00;;
2646;SDS011;1333;50.958;6.770;2022-08-18T12:17:44;7.20;;;6.43;;
2646;SDS011;1333;50.958;6.770;2022-08-18T12:20:11;6.53;;;6.03;;
2646;SDS011;1333;50.958;6.770;2022-08-18T12:22:38;7.40;;;6.70;;
2646;SDS011;1333;50.958;6.770;2022-08-18T12:25:06;6.27;;;5.67;;
2646;SDS011;1333;50.958;6.770;2022-08-18T12:27:36;6.27;;;5.77;;
2646;SDS011;1333;50.958;6.770;2022-08-18T12:30:02;6.90;;;6.30;;
2646;SDS011;1333;50.958;6.770;2022-08-18T12:32:30;6.70;;;6.10;;
2646;SDS011;1333;50.958;6.770;2022-08-18T12:34:57;6.63;;;6.00;;
2646;SDS011;1333;50.958;6.770;2022-08-18T12:37:24;6.20;;;5.70;;
2646;SDS011;1333;50.958;6.770;2022-08-18T12:39:51;6.70;;;6.07;;
2646;SDS011;1333;50.958;6.770;2022-08-18T12:42:18;6.77;;;6.20;;
2646;SDS011;1333;50.958;6.770;2022-08-18T12:44:44;7.13;;;6.03;;
2646;SDS011;1333;50.958;6.770;2022-08-18T12:47:14;7.03;;;6.33;;
2646;SDS011;1333;50.958;6.770;2022-08-18T12:49:42;8.03;;;7.27;;
2646;SDS011;1333;50.958;6.770;2022-08-18T12:52:08;11.03;;;8.97;;
2646;SDS011;1333;50.958;6.770;2022-08-18T12:54:34;9.67;;;8.87;;
2646;SDS011;1333;50.958;6.770;2022-08-18T12:57:00;9.43;;;8.53;;
2646;SDS011;1333;50.958;6.770;2022-08-18T12:59:29;10.23;;;9.23;;
2646;SDS011;1333;50.958;6.770;2022-08-18T13:01:55;7.37;;;6.70;;
2646;SDS011;1333;50.958;6.770;2022-08-18T13:04:20;5.00;;;4.60;;
2646;SDS011;1333;50.958;6.770;2022-08-18T13:06:47;5.80;;;5.07;;
2646;SDS011;1333;50.958;6.770;2022-08-18T13:09:16;4.63;;;4.23;;
2646;SDS011;1333;50.958;6.770;2022-08-18T13:11:42;4.20;;;3.80;;
2646;SDS011;1333;50.958;6.770;2022-08-18T13:14:07;4.83;;;4.40;;
2646;SDS011;1333;50.958;6.770;2022-08-18T13:16:34;4.20;;;3.90;;
2646;SDS011;1333;50.958;6.770;2022-08-18T13:19:01;5.00;;;4.60;;
2646;SDS011;1333;50.958;6.770;2022-08-18T13:21:27;5.60;;;5.10;;
2646;SDS011;1333;50.958;6.770;2022-08-18T13:23:54;5.47;;;4.97;;
2646;SDS011;1333;50.958;6.770;2022-08-18T13:26:30;6.20;;;5.53;;
2646;SDS011;1333;50.958;6.770;2022-08-18T13:28:58;5.23;;;4.80;;
2646;SDS011;1333;50.958;6.770;2022-08-18T13:31:24;6.57;;;6.00;;
2646;SDS011;1333;50.958;6.770;2022-08-18T13:33:50;5.17;;;4.77;;
2646;SDS011;1333;50.958;6.770;2022-08-18T13:36:17;5.50;;;5.00;;
2646;SDS011;1333;50.958;6.770;2022-08-18T13:38:43;7.00;;;5.90;;
2646;SDS011;1333;50.958;6.770;2022-08-18T13:41:08;5.60;;;5.10;;
2646;SDS011;1333;50.958;6.770;2022-08-18T13:43:38;7.27;;;5.20;;
2646;SDS011;1333;50.958;6.770;2022-08-18T13:46:07;6.60;;;6.00;;
2646;SDS011;1333;50.958;6.770;2022-08-18T13:48:38;5.40;;;4.90;;
2646;SDS011;1333;50.958;6.770;2022-08-18T13:51:04;6.23;;;5.63;;
2646;SDS011;1333;50.958;6.770;2022-08-18T13:53:32;6.20;;;5.63;;
2646;SDS011;1333;50.958;6.770;2022-08-18T13:55:59;4.63;;;4.23;;
2646;SDS011;1333;50.958;6.770;2022-08-18T13:58:26;5.27;;;4.77;;
2646;SDS011;1333;50.958;6.770;2022-08-18T14:00:55;5.87;;;5.27;;
2646;SDS011;1333;50.958;6.770;2022-08-18T14:03:26;5.60;;;4.70;;
2646;SDS011;1333;50.958;6.770;2022-08-18T14:05:52;6.00;;;4.60;;
2646;SDS011;1333;50.958;6.770;2022-08-18T14:08:18;5.60;;;5.00;;
2646;SDS011;1333;50.958;6.770;2022-08-18T14:10:44;5.00;;;4.50;;
2646;SDS011;1333;50.958;6.770;2022-08-18T14:13:13;4.80;;;4.40;;
2646;SDS011;1333;50.958;6.770;2022-08-18T14:15:40;5.30;;;4.60;;
2646;SDS011;1333;50.958;6.770;2022-08-18T14:18:07;5.43;;;4.93;;
2646;SDS011;1333;50.958;6.770;2022-08-18T14:20:34;5.47;;;4.30;;
2646;SDS011;1333;50.958;6.770;2022-08-18T14:23:19;7.30;;;5.10;;
2646;SDS011;1333;50.958;6.770;2022-08-18T14:26:03;4.60;;;4.20;;
2646;SDS011;1333;50.958;6.770;2022-08-18T14:28:47;12.30;;;11.00;;
2646;SDS011;1333;50.958;6.770;2022-08-18T14:31:12;4.70;;;4.30;;
2646;SDS011;1333;50.958;6.770;2022-08-18T14:33:38;4.40;;;4.00;;
2646;SDS011;1333;50.958;6.770;2022-08-18T14:36:04;4.27;;;3.87;;
2646;SDS011;1333;50.958;6.770;2022-08-18T14:38:33;6.23;;;3.40;;
2646;SDS011;1333;50.958;6.770;2022-08-18T14:41:01;5.50;;;5.00;;
2646;SDS011;1333;50.958;6.770;2022-08-18T14:43:28;5.43;;;4.93;;
2646;SDS011;1333;50.958;6.770;2022-08-18T14:45:55;5.10;;;4.43;;
2646;SDS011;1333;50.958;6.770;2022-08-18T14:48:21;5.03;;;4.63;;
2646;SDS011;1333;50.958;6.770;2022-08-18T14:50:51;5.17;;;4.67;;
2646;SDS011;1333;50.958;6.770;2022-08-18T14:53:19;6.40;;;5.90;;
2646;SDS011;1333;50.958;6.770;2022-08-18T14:55:47;6.93;;;5.77;;
2646;SDS011;1333;50.958;6.770;2022-08-18T14:58:16;7.93;;;7.20;;
2646;SDS011;1333;50.958;6.770;2022-08-18T15:00:43;6.93;;;6.33;;
2646;SDS011;1333;50.958;6.770;2022-08-18T15:03:08;9.20;;;6.70;;
2646;SDS011;1333;50.958;6.770;2022-08-18T15:05:34;7.40;;;6.70;;
2646;SDS011;1333;50.958;6.770;2022-08-18T15:08:00;8.63;;;7.93;;
2646;SDS011;1333;50.958;6.770;2022-08-18T15:10:30;7.63;;;7.00;;
2646;SDS011;1333;50.958;6.770;2022-08-18T15:12:56;9.07;;;7.60;;
2646;SDS011;1333;50.958;6.770;2022-08-18T15:15:23;14.40;;;7.00;;
2646;SDS011;1333;50.958;6.770;2022-08-18T15:17:49;7.70;;;6.97;;
2646;SDS011;1333;50.958;6.770;2022-08-18T15:20:15;7.67;;;6.70;;
2646;SDS011;1333;50.958;6.770;2022-08-18T15:22:41;7.00;;;6.30;;
2646;SDS011;1333;50.958;6.770;2022-08-18T15:25:27;7.87;;;6.93;;
2646;SDS011;1333;50.958;6.770;2022-08-18T15:28:05;8.90;;;6.83;;
2646;SDS011;1333;50.958;6.770;2022-08-18T15:30:32;7.77;;;6.90;;
2646;SDS011;1333;50.958;6.770;2022-08-18T15:32:57;8.53;;;6.20;;
2646;SDS011;1333;50.958;6.770;2022-08-18T15:35:24;6.53;;;5.93;;
2646;SDS011;1333;50.958;6.770;2022-08-18T15:37:49;7.10;;;6.40;;
2646;SDS011;1333;50.958;6.770;2022-08-18T15:40:19;7.17;;;6.50;;
2646;SDS011;1333;50.958;6.770;2022-08-18T15:42:54;9.23;;;6.40;;
2646;SDS011;1333;50.958;6.770;2022-08-18T15:45:26;7.37;;;6.57;;
2646;SDS011;1333;50.958;6.770;2022-08-18T15:47:59;6.67;;;6.07;;
2646;SDS011;1333;50.958;6.770;2022-08-18T15:50:25;5.50;;;5.00;;
2646;SDS011;1333;50.958;6.770;2022-08-18T15:52:54;6.30;;;5.80;;
2646;SDS011;1333;50.958;6.770;2022-08-18T15:55:23;7.27;;;6.57;;
2646;SDS011;1333;50.958;6.770;2022-08-18T15:57:50;6.47;;;5.87;;
2646;SDS011;1333;50.958;6.770;2022-08-18T16:00:17;7.20;;;6.50;;
2646;SDS011;1333;50.958;6.770;2022-08-18T16:02:54;6.13;;;5.53;;
2646;SDS011;1333;50.958;6.770;2022-08-18T16:05:21;9.13;;;7.40;;
2646;SDS011;1333;50.958;6.770;2022-08-18T16:07:50;7.07;;;6.40;;
2646;SDS011;1333;50.958;6.770;2022-08-18T16:10:18;7.23;;;6.20;;
2646;SDS011;1333;50.958;6.770;2022-08-18T16:12:45;4.87;;;4.40;;
2646;SDS011;1333;50.958;6.770;2022-08-18T16:15:15;5.93;;;5.27;;
2646;SDS011;1333;50.958;6.770;2022-08-18T16:17:42;5.20;;;4.70;;
2646;SDS011;1333;50.958;6.770;2022-08-18T16:20:09;6.63;;;5.70;;
2646;SDS011;1333;50.958;6.770;2022-08-18T16:22:35;6.80;;;5.60;;
2646;SDS011;1333;50.958;6.770;2022-08-18T16:25:02;9.83;;;5.63;;
2646;SDS011;1333;50.958;6.770;2022-08-18T16:27:30;6.47;;;5.67;;
2646;SDS011;1333;50.958;6.770;2022-08-18T16:29:58;5.67;;;5.17;;
2646;SDS011;1333;50.958;6.770;2022-08-18T16:32:23;4.70;;;4.13;;
2646;SDS011;1333;50.958;6.770;2022-08-18T16:34:49;5.57;;;5.07;;
2646;SDS011;1333;50.958;6.770;2022-08-18T16:37:16;5.20;;;4.57;;
2646;SDS011;1333;50.958;6.770;2022-08-18T16:39:42;5.67;;;5.07;;
2646;SDS011;1333;50.958;6.770;2022-08-18T16:42:08;4.00;;;3.60;;
2646;SDS011;1333;50.958;6.770;2022-08-18T16:44:36;5.17;;;4.70;;
2646;SDS011;1333;50.958;6.770;2022-08-18T16:47:05;6.43;;;4.70;;
2646;SDS011;1333;50.958;6.770;2022-08-18T16:49:31;4.50;;;4.10;;
2646;SDS011;1333;50.958;6.770;2022-08-18T16:52:00;5.40;;;4.90;;
2646;SDS011;1333;50.958;6.770;2022-08-18T16:54:28;4.50;;;3.80;;
2646;SDS011;1333;50.958;6.770;2022-08-18T16:56:54;4.20;;;3.70;;
2646;SDS011;1333;50.958;6.770;2022-08-18T16:59:20;4.87;;;4.47;;
2646;SDS011;1333;50.958;6.770;2022-08-18T17:02:04;5.70;;;3.63;;
2646;SDS011;1333;50.958;6.770;2022-08-18T17:04:48;4.47;;;3.70;;
2646;SDS011;1333;50.958;6.770;2022-08-18T17:07:16;4.40;;;4.00;;
2646;SDS011;1333;50.958;6.770;2022-08-18T17:09:42;5.43;;;5.03;;
2646;SDS011;1333;50.958;6.770;2022-08-18T17:12:08;4.23;;;3.83;;
2646;SDS011;1333;50.958;6.770;2022-08-18T17:14:33;4.23;;;3.83;;
2646;SDS011;1333;50.958;6.770;2022-08-18T17:17:00;4.57;;;3.93;;
2646;SDS011;1333;50.958;6.770;2022-08-18T17:19:28;8.00;;;5.67;;
2646;SDS011;1333;50.958;6.770;2022-08-18T17:21:55;4.43;;;4.03;;
2646;SDS011;1333;50.958;6.770;2022-08-18T17:24:21;5.07;;;4.30;;